Terminal Aerodrome Forecast
Issued by NWS Bismarck, ND

Home | Current Version | Previous Version | Text Only | Print | Product List | Glossary On
Versions: 1 2 3 4 5 6 7 8 9 10 11 12 13 14 15
000
FTUS43 KBIS 191700
TAFISN
TAF
KISN 191739Z 1918/2018 28019G27KT P6SM FEW110
     FM192200 32013KT P6SM VCSH SCT060
     FM200200 31009KT P6SM SCT070
     FM200800 27005KT P6SM SCT110
     FM201200 28006KT P6SM BKN080
     FM201500 31013KT P6SM SCT070=

USA.gov is the U.S. government's official web portal to all federal, state and local government web resources and services.